Time;durP1;ratioP1;P1;durP2;ratioP2;P2;SDS_P1;SDS_P2;PMS_P1;PMS_P2;Temp;Humidity;BMP_temperature;BMP_pressure;BME280_temperature;BME280_humidity;BME280_pressure;Samples;Min_cycle;Max_cycle;Signal;HPM_P1;HPM_P2
2022/03/23 00:00:48;;;;;;;7.38;6.97;;;;;;;2.74;56.02;102398.00;5029117;28;20345;-64
2022/03/23 00:03:15;;;;;;;8.02;7.57;;;;;;;2.75;56.23;102404.94;5018954;28;20121;-64
2022/03/23 00:05:41;;;;;;;7.13;6.78;;;;;;;2.70;56.41;102404.31;5037529;28;20158;-63
2022/03/23 00:08:10;;;;;;;6.93;6.63;;;;;;;2.74;56.36;102405.88;5052881;28;20025;-63
2022/03/23 00:10:37;;;;;;;7.25;6.85;;;;;;;2.69;56.39;102400.84;5043731;28;20211;-63
2022/03/23 00:13:03;;;;;;;6.70;6.40;;;;;;;2.60;57.32;102408.34;5033112;28;20029;-64
2022/03/23 00:15:30;;;;;;;6.80;6.50;;;;;;;2.47;57.91;102413.34;5031425;28;20033;-63
2022/03/23 00:17:57;;;;;;;6.80;6.50;;;;;;;2.45;57.46;102407.34;5032737;28;20104;-64
2022/03/23 00:20:24;;;;;;;8.45;7.95;;;;;;;2.37;56.92;102407.72;5033101;28;20022;-63
2022/03/23 00:22:50;;;;;;;7.50;7.10;;;;;;;2.31;57.70;102399.31;5040075;28;20076;-64
2022/03/23 00:25:16;;;;;;;7.00;6.68;;;;;;;2.38;57.10;102398.94;5032481;28;20036;-63
2022/03/23 00:27:42;;;;;;;7.28;6.88;;;;;;;2.29;57.77;102381.06;5038353;28;20021;-63
2022/03/23 00:30:08;;;;;;;7.32;6.93;;;;;;;2.19;58.09;102390.28;5019499;28;20148;-62
2022/03/23 00:32:33;;;;;;;7.30;6.90;;;;;;;2.21;58.85;102386.69;5020702;28;20542;-63
2022/03/23 00:34:59;;;;;;;7.88;7.47;;;;;;;2.15;59.25;102378.28;5038870;28;20025;-63
2022/03/23 00:37:25;;;;;;;7.95;7.55;;;;;;;2.15;59.34;102383.50;5030697;28;20040;-63
2022/03/23 00:39:50;;;;;;;8.00;7.55;;;;;;;2.07;59.64;102388.28;5035701;28;20032;-64
2022/03/23 00:42:16;;;;;;;7.75;7.35;;;;;;;2.01;60.08;102396.41;5039274;28;20072;-62
2022/03/23 00:44:42;;;;;;;7.60;7.20;;;;;;;1.96;59.64;102387.91;5029170;28;20028;-63
2022/03/23 00:47:09;;;;;;;7.85;7.45;;;;;;;1.92;59.85;102385.47;5031954;28;20038;-62
2022/03/23 00:49:36;;;;;;;7.45;7.05;;;;;;;1.87;59.78;102384.81;5031939;28;20029;-61
2022/03/23 00:52:06;;;;;;;7.32;6.93;;;;;;;1.87;60.28;102389.22;5032002;28;20392;-64
2022/03/23 00:54:34;;;;;;;7.28;6.88;;;;;;;1.86;61.16;102379.66;5032041;28;20129;-63
2022/03/23 00:57:01;;;;;;;7.13;6.78;;;;;;;1.82;62.56;102383.34;5038469;28;20045;-62
2022/03/23 00:59:27;;;;;;;7.28;6.88;;;;;;;1.79;63.21;102380.88;5052130;28;20048;-64
2022/03/23 01:01:53;;;;;;;7.38;6.97;;;;;;;1.77;62.66;102372.25;5047706;28;20021;-64
2022/03/23 01:04:19;;;;;;;7.50;7.10;;;;;;;1.77;62.98;102369.66;5051473;28;20086;-64
2022/03/23 01:06:45;;;;;;;6.90;6.60;;;;;;;1.72;63.29;102371.63;5048746;28;20029;-64
2022/03/23 01:09:11;;;;;;;6.93;6.63;;;;;;;1.81;61.77;102374.66;5030431;28;20048;-62
2022/03/23 01:11:39;;;;;;;7.15;6.75;;;;;;;1.73;61.07;102368.94;5031297;28;20025;-62
2022/03/23 01:14:06;;;;;;;6.80;6.50;;;;;;;1.70;61.31;102368.25;5030359;28;20123;-63
2022/03/23 01:16:33;;;;;;;7.18;6.80;;;;;;;1.69;60.94;102366.53;5035280;28;20456;-63
2022/03/23 01:18:59;;;;;;;7.43;7.03;;;;;;;1.66;60.74;102357.91;5031972;28;20032;-63
2022/03/23 01:21:24;;;;;;;7.35;6.95;;;;;;;1.62;60.20;102356.38;5046923;28;20124;-62
2022/03/23 01:23:51;;;;;;;7.30;6.90;;;;;;;1.64;59.94;102358.91;5031427;28;20065;-64
2022/03/23 01:26:17;;;;;;;7.57;7.18;;;;;;;1.62;60.26;102355.53;5026521;28;20104;-64
2022/03/23 01:28:43;;;;;;;7.53;7.13;;;;;;;1.45;60.24;102345.81;5045448;28;20029;-64
2022/03/23 01:31:08;;;;;;;7.43;7.03;;;;;;;1.52;60.86;102356.84;5041480;28;20040;-62
2022/03/23 01:33:34;;;;;;;7.75;7.35;;;;;;;1.50;60.40;102362.16;5042472;28;20104;-62
2022/03/23 01:36:00;;;;;;;7.45;7.05;;;;;;;1.49;60.01;102357.84;5030967;28;20140;-63
2022/03/23 01:38:25;;;;;;;7.93;7.50;;;;;;;1.47;60.63;102356.22;5031875;28;20030;-63
2022/03/23 01:40:51;;;;;;;7.65;7.25;;;;;;;1.39;60.48;102354.78;5046870;28;20013;-63
2022/03/23 01:43:16;;;;;;;8.43;7.93;;;;;;;1.36;60.69;102357.56;5031658;28;20040;-62
2022/03/23 01:45:42;;;;;;;7.13;6.72;;;;;;;1.33;60.79;102351.66;5042411;28;20481;-62
2022/03/23 01:48:08;;;;;;;7.07;6.68;;;;;;;1.29;61.26;102356.16;5031010;28;20389;-62
2022/03/23 01:50:33;;;;;;;7.65;7.25;;;;;;;1.20;60.74;102346.13;5045282;28;20396;-62
2022/03/23 01:52:59;;;;;;;7.35;6.95;;;;;;;1.13;60.97;102349.94;5043120;28;20043;-63
2022/03/23 01:55:25;;;;;;;7.15;6.75;;;;;;;1.14;60.82;102346.38;5035100;28;20144;-64
2022/03/23 01:57:52;;;;;;;7.30;6.90;;;;;;;1.16;61.13;102360.22;5035312;28;20026;-62
2022/03/23 02:00:19;;;;;;;7.65;7.25;;;;;;;1.12;61.26;102363.06;5037930;28;20107;-62
2022/03/23 02:02:45;;;;;;;7.63;7.22;;;;;;;1.04;61.21;102360.78;5040133;28;20029;-63
2022/03/23 02:05:11;;;;;;;7.57;7.18;;;;;;;1.00;61.78;102356.59;5034465;28;20033;-62
2022/03/23 02:07:38;;;;;;;7.75;7.35;;;;;;;0.98;62.38;102363.69;5035035;28;20044;-63
2022/03/23 02:10:06;;;;;;;7.43;7.03;;;;;;;0.87;62.45;102345.00;5047772;28;20139;-63
2022/03/23 02:12:32;;;;;;;7.10;6.80;;;;;;;0.92;62.56;102358.72;5054914;28;20029;-63
2022/03/23 02:14:58;;;;;;;7.32;6.93;;;;;;;0.89;62.40;102359.72;5053090;28;20040;-63
2022/03/23 02:17:25;;;;;;;7.20;6.80;;;;;;;0.82;62.83;102355.66;5030739;28;20021;-62
2022/03/23 02:19:51;;;;;;;6.95;6.65;;;;;;;0.73;63.31;102350.81;5045575;28;20102;-63
2022/03/23 02:22:17;;;;;;;7.55;7.15;;;;;;;0.81;62.96;102362.66;5034637;28;20021;-63
2022/03/23 02:24:46;;;;;;;7.25;6.85;;;;;;;0.69;63.78;102349.28;5044395;28;20132;-63
2022/03/23 02:27:12;;;;;;;7.35;6.95;;;;;;;0.64;63.52;102349.47;5048749;28;20025;-63
2022/03/23 02:29:38;;;;;;;7.35;6.95;;;;;;;0.70;63.60;102361.41;5055072;28;20044;-63
2022/03/23 02:32:05;;;;;;;7.25;6.80;;;;;;;0.60;64.56;102349.69;5054465;28;20107;-63
2022/03/23 02:34:31;;;;;;;7.00;6.70;;;;;;;0.57;64.16;102348.03;5044942;28;20021;-63
2022/03/23 02:36:58;;;;;;;6.88;6.57;;;;;;;0.64;64.00;102346.00;5039493;28;20087;-63
2022/03/23 02:39:25;;;;;;;7.43;7.03;;;;;;;0.53;64.45;102351.69;5045729;28;20021;-63
2022/03/23 02:41:53;;;;;;;6.82;6.53;;;;;;;0.48;64.72;102358.88;5034137;28;20021;-62
2022/03/23 02:44:20;;;;;;;7.22;6.82;;;;;;;0.42;64.31;102353.91;5035284;28;20489;-63
2022/03/23 02:46:45;;;;;;;7.55;7.15;;;;;;;0.43;64.40;102356.44;5034466;28;20029;-62
2022/03/23 02:49:11;;;;;;;7.40;7.00;;;;;;;0.30;64.85;102342.22;5033916;28;20083;-64
2022/03/23 02:51:37;;;;;;;8.32;7.82;;;;;;;0.34;64.76;102361.22;5033468;28;20439;-63
2022/03/23 03:02:56;;;;;;;7.07;6.70;;;;;;;0.14;65.48;102354.19;5034205;28;20372;-63
2022/03/23 03:05:22;;;;;;;6.95;6.65;;;;;;;0.13;65.88;102358.56;5034156;28;20025;-63
2022/03/23 03:10:31;;;;;;;7.05;6.68;;;;;;;0.12;66.05;102356.03;5043060;28;20040;-64
2022/03/23 03:12:57;;;;;;;7.47;7.07;;;;;;;0.15;65.96;102350.69;5033964;28;20029;-62
2022/03/23 03:15:22;;;;;;;7.75;7.35;;;;;;;0.14;66.49;102351.56;5035133;28;20519;-62
2022/03/23 03:17:48;;;;;;;7.65;7.25;;;;;;;0.13;66.83;102349.88;5031946;28;20766;-63
2022/03/23 03:20:15;;;;;;;7.60;7.20;;;;;;;0.09;67.04;102348.34;5033976;28;20101;-64
2022/03/23 03:22:41;;;;;;;7.03;6.70;;;;;;;0.13;67.14;102358.56;5020398;28;20022;-63
2022/03/23 03:25:11;;;;;;;7.18;6.78;;;;;;;0.07;67.54;102344.91;5041239;28;20036;-63
2022/03/23 03:27:38;;;;;;;6.78;6.47;;;;;;;-0.01;67.71;102358.28;5040156;28;20024;-64
2022/03/23 03:30:09;;;;;;;6.65;6.35;;;;;;;-0.09;67.43;102342.06;5033767;28;20662;-64
2022/03/23 03:32:35;;;;;;;6.85;6.55;;;;;;;-0.08;68.37;102362.88;5048794;28;20031;-64
2022/03/23 03:35:01;;;;;;;7.07;6.70;;;;;;;-0.16;69.15;102351.06;5031520;28;20025;-64
2022/03/23 03:37:26;;;;;;;7.03;6.68;;;;;;;-0.10;69.24;102350.81;5013253;28;20026;-63
2022/03/23 03:39:52;;;;;;;6.93;6.60;;;;;;;-0.11;69.31;102355.19;5038562;28;20025;-64
2022/03/23 03:42:18;;;;;;;7.03;6.68;;;;;;;-0.14;69.57;102360.53;5042447;28;20025;-63
2022/03/23 03:44:44;;;;;;;6.50;6.20;;;;;;;-0.18;69.52;102364.16;5042776;28;20029;-63
2022/03/23 03:47:10;;;;;;;7.28;6.88;;;;;;;-0.21;69.13;102348.66;5033348;28;20032;-63
2022/03/23 03:49:37;;;;;;;7.57;7.18;;;;;;;-0.29;69.34;102355.94;5031617;28;20110;-63
2022/03/23 03:52:03;;;;;;;7.20;6.80;;;;;;;-0.33;69.49;102357.78;5027284;28;20486;-63
2022/03/23 03:54:29;;;;;;;7.43;7.03;;;;;;;-0.33;69.05;102359.56;5033129;28;20104;-64
2022/03/23 03:56:54;;;;;;;6.85;6.55;;;;;;;-0.36;69.48;102359.69;5032877;28;20129;-63
2022/03/23 03:59:20;;;;;;;7.45;7.05;;;;;;;-0.24;68.76;102356.56;5035855;28;20021;-64
2022/03/23 04:01:46;;;;;;;7.60;7.20;;;;;;;-0.32;68.91;102367.31;5041710;28;20025;-65
2022/03/23 04:04:11;;;;;;;8.20;7.70;;;;;;;-0.38;69.11;102359.72;5037142;28;20056;-63
2022/03/23 04:06:37;;;;;;;7.55;7.15;;;;;;;-0.38;69.05;102357.09;5042776;28;20027;-63
2022/03/23 04:09:02;;;;;;;7.25;6.85;;;;;;;-0.32;68.59;102358.63;5040618;28;20060;-62
2022/03/23 04:11:29;;;;;;;7.38;6.97;;;;;;;-0.27;68.51;102354.09;5032583;28;20048;-64
2022/03/23 04:13:54;;;;;;;7.65;7.25;;;;;;;-0.08;67.58;102357.66;5032546;28;20017;-64
2022/03/23 04:16:20;;;;;;;7.75;7.35;;;;;;;0.07;66.76;102358.81;5033166;28;20162;-64
2022/03/23 04:18:45;;;;;;;7.28;6.90;;;;;;;0.44;66.19;102359.91;5040169;28;20562;-64
2022/03/23 04:21:11;;;;;;;7.47;7.07;;;;;;;0.71;65.18;102360.50;5042658;28;20025;-64
2022/03/23 04:23:36;;;;;;;7.15;6.75;;;;;;;1.17;63.31;102361.06;5032754;28;20030;-64
2022/03/23 04:26:02;;;;;;;6.65;6.35;;;;;;;1.39;62.28;102362.63;5032350;28;20056;-64
2022/03/23 04:28:28;;;;;;;6.28;5.97;;;;;;;2.02;60.20;102359.69;5032305;28;20025;-63
2022/03/23 04:30:53;;;;;;;6.65;6.35;;;;;;;2.27;59.29;102359.31;5032747;28;20029;-63
2022/03/23 04:33:19;;;;;;;6.80;6.47;;;;;;;2.69;57.76;102355.47;5042777;28;20438;-63
2022/03/23 04:35:44;;;;;;;6.85;6.50;;;;;;;3.06;56.76;102357.00;5028076;28;20044;-63
2022/03/23 04:38:10;;;;;;;6.20;5.90;;;;;;;3.50;54.93;102365.09;5044646;28;20040;-63
2022/03/23 04:40:35;;;;;;;6.50;6.20;;;;;;;3.76;53.44;102360.22;5048651;28;20425;-63
2022/03/23 04:43:01;;;;;;;7.05;6.68;;;;;;;4.21;52.30;102362.00;5030724;28;20028;-64
2022/03/23 04:45:26;;;;;;;7.20;6.80;;;;;;;4.73;50.08;102364.19;5031456;28;20033;-65
2022/03/23 04:47:52;;;;;;;6.40;6.10;;;;;;;5.15;49.77;102370.44;5036472;28;20047;-65
2022/03/23 04:50:18;;;;;;;7.18;6.82;;;;;;;5.87;47.91;102368.50;5046384;28;20028;-64
2022/03/23 04:52:46;;;;;;;6.32;6.03;;;;;;;7.65;43.40;102366.00;5031206;28;20550;-64
2022/03/23 04:55:13;;;;;;;6.45;6.15;;;;;;;9.60;40.71;102379.34;5042521;28;20124;-63
2022/03/23 04:57:39;;;;;;;6.53;6.22;;;;;;;10.40;38.53;102371.06;5040606;28;20025;-63
2022/03/23 05:00:15;;;;;;;7.03;6.72;;;;;;;10.90;37.43;102372.09;5034437;28;20022;-63
2022/03/23 05:02:42;;;;;;;7.93;7.53;;;;;;;12.34;33.39;102368.13;5021290;28;20147;-64
2022/03/23 05:05:11;;;;;;;7.18;6.88;;;;;;;12.16;32.88;102373.28;5042513;28;20021;-64
2022/03/23 05:07:37;;;;;;;7.45;7.15;;;;;;;13.44;30.49;102379.06;5031675;28;20036;-64
2022/03/23 05:10:03;;;;;;;7.22;6.93;;;;;;;13.58;29.87;102384.84;5040963;28;20095;-63
2022/03/23 05:12:29;;;;;;;7.82;7.47;;;;;;;14.40;28.69;102387.38;5031769;28;20037;-65
2022/03/23 05:14:54;;;;;;;7.07;6.78;;;;;;;14.85;28.20;102381.88;5031608;28;20033;-64
2022/03/23 05:17:20;;;;;;;7.25;6.95;;;;;;;14.98;28.14;102381.44;5031976;28;20028;-64
2022/03/23 05:19:46;;;;;;;7.63;7.32;;;;;;;16.40;26.52;102386.91;5019988;28;20025;-64
2022/03/23 05:22:12;;;;;;;8.88;8.48;;;;;;;16.80;25.46;102381.53;5040559;28;20513;-64
2022/03/23 05:24:39;;;;;;;8.82;8.43;;;;;;;16.47;24.93;102388.75;5034387;28;20098;-64
2022/03/23 05:27:05;;;;;;;7.60;7.30;;;;;;;16.81;25.40;102388.56;5036840;28;20476;-64
2022/03/23 05:29:32;;;;;;;7.47;7.18;;;;;;;17.98;23.53;102388.78;5036706;28;20390;-64
2022/03/23 05:31:57;;;;;;;7.78;7.47;;;;;;;18.03;23.66;102395.31;5050959;28;20016;-63
2022/03/23 05:34:23;;;;;;;7.72;7.43;;;;;;;17.45;24.24;102387.72;5032315;28;20040;-63
2022/03/23 05:36:48;;;;;;;7.70;7.40;;;;;;;18.54;22.84;102394.75;5031497;28;20029;-64
2022/03/23 05:39:14;;;;;;;7.55;7.25;;;;;;;19.33;22.02;102390.56;5028178;28;20043;-64
2022/03/23 05:41:39;;;;;;;7.55;7.25;;;;;;;19.42;21.65;102392.13;5038826;28;20048;-65
2022/03/23 05:44:05;;;;;;;7.47;7.18;;;;;;;19.20;21.65;102388.53;5032993;28;20029;-62
2022/03/23 05:46:31;;;;;;;7.45;7.15;;;;;;;18.81;22.28;102390.66;5051403;28;20036;-62
2022/03/23 05:48:56;;;;;;;7.80;7.50;;;;;;;18.87;22.13;102396.13;5039455;28;20033;-63
2022/03/23 05:51:23;;;;;;;8.23;7.82;;;;;;;19.48;21.46;102395.94;5031265;28;20440;-63
2022/03/23 05:53:49;;;;;;;7.65;7.35;;;;;;;20.72;20.57;102391.22;5020246;28;20381;-64
2022/03/23 05:56:16;;;;;;;7.35;7.05;;;;;;;19.90;20.86;102384.41;5011106;28;20564;-63
2022/03/23 05:58:42;;;;;;;7.82;7.53;;;;;;;19.81;20.72;102385.56;5011656;28;20034;-63
2022/03/23 06:01:07;;;;;;;7.60;7.30;;;;;;;20.95;20.14;102395.31;5023305;28;20503;-63
2022/03/23 06:03:35;;;;;;;7.22;6.93;;;;;;;20.51;20.37;102394.78;5051410;28;20044;-63
2022/03/23 06:06:01;;;;;;;7.30;7.00;;;;;;;20.84;19.78;102392.31;5049535;28;20087;-63
2022/03/23 06:08:26;;;;;;;7.70;7.40;;;;;;;21.69;19.31;102399.25;5018274;28;20022;-63
2022/03/23 06:10:52;;;;;;;7.40;7.10;;;;;;;21.54;19.03;102391.28;5011284;28;20552;-62
2022/03/23 06:13:18;;;;;;;7.50;7.20;;;;;;;21.83;19.00;102386.59;5011431;28;20038;-63
2022/03/23 06:15:43;;;;;;;7.78;7.47;;;;;;;22.04;18.47;102394.56;5019178;28;20101;-64
2022/03/23 06:18:09;;;;;;;7.75;7.45;;;;;;;20.65;19.46;102394.69;5011469;28;20060;-62
2022/03/23 06:20:34;;;;;;;7.10;6.80;;;;;;;20.91;19.50;102390.50;5040820;28;20052;-62
2022/03/23 06:23:00;;;;;;;7.50;7.20;;;;;;;22.68;18.03;102387.72;5030964;28;20060;-63
2022/03/23 06:25:26;;;;;;;7.60;7.30;;;;;;;21.45;18.91;102384.41;5041533;28;20127;-63
2022/03/23 06:27:52;;;;;;;7.57;7.28;;;;;;;21.28;18.61;102388.47;5048579;28;20029;-63
2022/03/23 06:30:17;;;;;;;7.32;7.03;;;;;;;21.20;18.88;102389.44;5029794;28;20490;-63
2022/03/23 06:32:43;;;;;;;7.60;7.30;;;;;;;21.37;18.84;102395.34;5029749;28;20026;-63
2022/03/23 06:35:09;;;;;;;7.38;7.07;;;;;;;20.53;19.50;102388.16;5030814;28;20049;-63
2022/03/23 06:37:34;;;;;;;7.15;6.85;;;;;;;21.06;18.53;102385.00;5034965;28;20067;-63
2022/03/23 06:40:01;;;;;;;7.57;7.28;;;;;;;21.99;18.14;102384.34;5036097;28;20473;-63
2022/03/23 06:42:27;;;;;;;7.53;7.22;;;;;;;20.94;19.10;102379.34;5027716;28;20500;-63
2022/03/23 06:44:53;;;;;;;7.05;6.75;;;;;;;22.53;18.24;102380.66;5021428;28;20374;-63
2022/03/23 06:47:19;;;;;;;7.50;7.20;;;;;;;22.25;18.08;102382.72;5034546;28;20111;-64
2022/03/23 06:49:44;;;;;;;7.40;7.10;;;;;;;21.85;18.36;102381.81;5034134;28;20485;-63
2022/03/23 06:52:10;;;;;;;7.65;7.35;;;;;;;22.31;17.93;102384.63;5034731;28;20087;-63
2022/03/23 06:54:36;;;;;;;7.68;7.38;;;;;;;21.69;18.46;102383.03;5034342;28;20449;-63
2022/03/23 06:57:01;;;;;;;7.53;7.22;;;;;;;22.23;17.73;102369.44;5023443;28;20057;-63
2022/03/23 06:59:27;;;;;;;7.60;7.30;;;;;;;23.97;16.95;102369.56;5029279;28;20033;-62
2022/03/23 07:01:52;;;;;;;7.38;7.07;;;;;;;23.31;17.17;102366.38;5034269;28;20104;-63
2022/03/23 07:04:18;;;;;;;7.40;7.10;;;;;;;23.59;17.08;102366.88;5033533;28;20801;-64
2022/03/23 07:06:43;;;;;;;7.60;7.30;;;;;;;22.82;17.43;102360.44;5032259;28;20034;-64
2022/03/23 07:11:53;;;;;;;;;;;;;;;23.04;17.64;102362.91;5027269;28;20037;-63
2022/03/23 07:14:18;;;;;;;7.60;7.30;;;;;;;23.47;17.28;102362.34;5034093;28;19917;-63
2022/03/23 07:16:44;;;;;;;7.70;7.40;;;;;;;23.23;17.79;102359.31;5033341;28;20029;-63
2022/03/23 07:19:10;;;;;;;7.88;7.57;;;;;;;22.81;17.57;102350.66;5034008;28;20025;-63
2022/03/23 07:21:35;;;;;;;7.57;7.28;;;;;;;23.89;17.20;102366.31;5033645;28;20025;-63
2022/03/23 07:24:01;;;;;;;7.50;7.20;;;;;;;24.87;16.58;102371.13;5031633;28;20030;-63
2022/03/23 07:26:27;;;;;;;7.38;7.07;;;;;;;23.21;17.66;102366.81;5050520;28;20024;-64
2022/03/23 07:28:52;;;;;;;7.50;7.20;;;;;;;24.05;17.12;102370.34;5053144;28;20395;-63
2022/03/23 07:31:18;;;;;;;7.55;7.25;;;;;;;23.44;17.55;102367.16;5039975;28;20079;-63
2022/03/23 07:33:44;;;;;;;7.60;7.30;;;;;;;23.05;17.58;102359.16;5045410;28;20489;-63
2022/03/23 07:36:12;;;;;;;7.72;7.43;;;;;;;24.77;16.94;102352.66;5048739;28;20070;-62
2022/03/23 07:38:40;;;;;;;7.50;7.20;;;;;;;23.28;17.53;102343.25;5029654;28;20029;-62
2022/03/23 07:41:06;;;;;;;7.53;7.22;;;;;;;24.40;16.79;102352.59;5044135;28;20484;-63
2022/03/23 07:43:32;;;;;;;7.60;7.30;;;;;;;24.18;17.11;102352.13;5031937;28;20148;-62
2022/03/23 07:45:58;;;;;;;7.95;7.65;;;;;;;24.66;16.51;102356.09;5041669;28;20041;-61
2022/03/23 07:48:24;;;;;;;7.78;7.47;;;;;;;24.67;16.37;102352.31;5039103;28;20108;-62
2022/03/23 07:50:51;;;;;;;7.60;7.30;;;;;;;24.62;16.75;102349.47;5036362;28;20087;-63
2022/03/23 07:53:17;;;;;;;7.60;7.30;;;;;;;25.22;16.54;102347.78;5031536;28;20038;-67
2022/03/23 07:55:42;;;;;;;7.90;7.60;;;;;;;23.95;17.12;102347.28;5032425;28;20144;-67
2022/03/23 07:58:08;;;;;;;8.00;7.70;;;;;;;25.32;16.28;102341.78;5041929;28;20112;-68
2022/03/23 08:00:33;;;;;;;7.45;7.15;;;;;;;25.66;16.33;102348.44;5043316;28;20041;-66
2022/03/23 08:02:59;;;;;;;7.32;7.03;;;;;;;24.96;16.65;102345.31;5028767;28;20079;-68
2022/03/23 08:05:25;;;;;;;7.93;7.63;;;;;;;25.50;16.02;102332.78;5048792;28;20035;-67
2022/03/23 08:07:51;;;;;;;7.43;7.13;;;;;;;25.51;16.36;102337.97;5037254;28;20041;-67
2022/03/23 08:10:17;;;;;;;7.32;7.03;;;;;;;26.11;16.31;102334.38;5034658;28;20477;-68
2022/03/23 08:12:42;;;;;;;7.60;7.30;;;;;;;25.24;16.13;102325.81;5039708;28;20028;-69
2022/03/23 08:15:09;;;;;;;7.50;7.20;;;;;;;23.97;17.06;102326.19;5027593;28;20483;-69
2022/03/23 08:17:38;;;;;;;7.50;7.20;;;;;;;23.28;18.26;102316.19;5057878;28;20515;-68
2022/03/23 08:22:59;;;;;;;7.53;7.22;;;;;;;24.31;17.30;102310.50;5036054;28;20098;-68
2022/03/23 08:25:24;;;;;;;7.32;7.03;;;;;;;24.34;17.18;102307.34;5033751;28;20038;-68
2022/03/23 08:27:50;;;;;;;7.20;6.90;;;;;;;24.83;17.13;102304.78;5048014;28;20483;-67
2022/03/23 08:30:16;;;;;;;7.57;7.28;;;;;;;24.93;16.81;102305.88;5044308;28;20087;-68
2022/03/23 08:32:41;;;;;;;7.50;7.20;;;;;;;23.22;18.28;102295.38;5031556;28;20539;-69
2022/03/23 08:35:07;;;;;;;7.40;7.10;;;;;;;25.66;16.31;102294.06;5032212;28;20014;-68
2022/03/23 08:37:33;;;;;;;7.80;7.50;;;;;;;25.78;16.14;102289.53;5037961;28;20029;-68
2022/03/23 08:39:59;;;;;;;7.72;7.43;;;;;;;24.91;16.58;102286.28;5040560;28;20481;-68
2022/03/23 08:42:25;;;;;;;7.85;7.55;;;;;;;24.69;16.84;102279.66;5032080;28;20041;-68
2022/03/23 08:44:51;;;;;;;8.05;7.75;;;;;;;23.21;18.52;102274.78;5029685;28;20484;-68
2022/03/23 08:47:17;;;;;;;7.97;7.68;;;;;;;21.40;19.60;102274.31;5027256;28;20083;-70
2022/03/23 08:49:43;;;;;;;8.27;7.88;;;;;;;20.01;21.60;102268.09;5030768;28;20116;-68
2022/03/23 08:52:09;;;;;;;7.80;7.50;;;;;;;21.49;20.37;102272.25;5028469;28;20039;-67
2022/03/23 08:54:35;;;;;;;8.20;7.80;;;;;;;20.67;20.66;102265.88;5037706;28;20025;-67
2022/03/23 08:57:00;;;;;;;8.00;7.63;;;;;;;18.96;22.89;102263.25;5044419;28;20415;-67
2022/03/23 08:59:26;;;;;;;8.27;7.88;;;;;;;20.39;21.31;102248.88;5035140;28;20031;-68
2022/03/23 09:01:51;;;;;;;8.30;7.90;;;;;;;21.41;20.16;102257.06;5044992;28;20016;-68
2022/03/23 09:04:17;;;;;;;8.57;8.18;;;;;;;22.19;19.47;102245.72;5044134;28;20408;-66
2022/03/23 09:06:43;;;;;;;7.60;7.30;;;;;;;21.72;19.84;102256.47;5036563;28;20068;-66
2022/03/23 09:09:09;;;;;;;7.95;7.55;;;;;;;21.44;19.95;102251.25;5032118;28;20616;-67
2022/03/23 09:11:35;;;;;;;9.02;8.63;;;;;;;19.86;21.73;102235.84;5024580;28;20112;-67
2022/03/23 09:14:01;;;;;;;7.63;7.32;;;;;;;21.89;19.49;102242.59;5029874;28;20037;-67
2022/03/23 09:16:26;;;;;;;7.70;7.40;;;;;;;21.16;19.25;102242.44;5032592;28;20476;-67
2022/03/23 09:18:52;;;;;;;7.57;7.28;;;;;;;21.84;18.57;102240.50;5044611;28;20024;-66
2022/03/23 09:21:17;;;;;;;8.23;7.82;;;;;;;21.94;18.77;102231.97;5034416;28;20381;-68
2022/03/23 09:23:43;;;;;;;7.72;7.43;;;;;;;20.16;20.65;102222.19;5039341;28;20034;-67
2022/03/23 09:26:10;;;;;;;8.07;7.68;;;;;;;16.19;24.13;102230.25;5028939;28;20040;-67
2022/03/23 09:28:36;;;;;;;7.30;7.00;;;;;;;17.86;22.84;102229.97;5042214;28;20025;-67
2022/03/23 09:31:01;;;;;;;8.13;7.72;;;;;;;20.20;20.48;102233.41;5027858;28;20024;-66
2022/03/23 09:33:30;;;;;;;8.60;8.20;;;;;;;19.76;20.66;102211.13;5051867;28;20459;-67
2022/03/23 09:35:56;;;;;;;8.68;8.27;;;;;;;20.34;20.55;102227.06;5030681;28;20531;-66
2022/03/23 09:38:22;;;;;;;8.85;8.45;;;;;;;18.41;21.90;102207.25;5039294;28;20108;-65
2022/03/23 09:40:51;;;;;;;7.63;7.32;;;;;;;20.06;20.77;102213.63;5029666;28;20034;-66
2022/03/23 09:43:21;;;;;;;7.70;7.40;;;;;;;20.46;20.55;102216.59;5043279;28;20101;-66
2022/03/23 09:45:47;;;;;;;8.43;8.02;;;;;;;20.30;20.06;102210.47;5045382;28;20041;-65
2022/03/23 09:48:16;;;;;;;8.45;8.05;;;;;;;17.46;22.39;102210.44;5032794;28;20433;-66
2022/03/23 09:50:45;;;;;;;8.40;8.00;;;;;;;18.21;22.11;102204.28;5028661;28;20091;-66
2022/03/23 09:53:10;;;;;;;8.10;7.70;;;;;;;18.29;22.14;102190.78;5026555;28;20029;-67
2022/03/23 09:55:37;;;;;;;7.90;7.55;;;;;;;19.04;21.74;102195.88;5049327;28;20504;-66
2022/03/23 09:58:05;;;;;;;8.88;8.48;;;;;;;18.75;21.81;102190.59;5036764;28;20100;-64
2022/03/23 10:00:42;;;;;;;8.10;7.70;;;;;;;18.00;22.50;102185.38;5029374;28;20030;-65
2022/03/23 10:03:13;;;;;;;8.73;8.32;;;;;;;19.32;21.17;102179.00;5034205;28;20432;-66
2022/03/23 10:06:16;;;;;;;8.48;8.07;;;;;;;18.92;21.15;102175.06;5032477;28;20484;-68
2022/03/23 10:09:18;;;;;;;8.50;8.10;;;;;;;15.94;24.14;102175.09;5032751;28;20086;-67
2022/03/23 10:12:21;;;;;;;9.48;8.98;;;;;;;14.77;25.23;102172.63;5030457;28;20028;-67
2022/03/23 10:15:05;;;;;;;8.35;7.95;;;;;;;15.23;25.12;102165.88;5030842;28;20086;-68
2022/03/23 10:18:12;;;;;;;8.88;8.48;;;;;;;14.98;25.68;102153.44;5044464;28;20032;-65
2022/03/23 10:20:38;;;;;;;8.10;7.70;;;;;;;16.74;23.59;102158.94;5032105;28;20030;-66
2022/03/23 10:23:06;;;;;;;8.27;7.88;;;;;;;16.61;24.08;102150.63;5031919;28;20038;-67
2022/03/23 10:25:31;;;;;;;7.95;7.55;;;;;;;17.25;23.36;102138.66;5032627;28;20388;-67
2022/03/23 10:27:57;;;;;;;7.80;7.45;;;;;;;17.18;23.13;102124.31;5038616;28;20100;-67
2022/03/23 10:30:37;;;;;;;9.85;9.35;;;;;;;16.91;23.58;102131.06;5042064;28;20082;-68
2022/03/23 10:33:03;;;;;;;8.82;8.43;;;;;;;16.81;23.74;102131.25;5032495;28;20025;-66
2022/03/23 10:35:40;;;;;;;7.35;7.05;;;;;;;16.98;23.21;102125.81;5034901;28;20075;-66
2022/03/23 10:38:19;;;;;;;7.93;7.53;;;;;;;16.72;23.65;102118.91;5022298;28;20021;-65
2022/03/23 10:40:46;;;;;;;7.20;6.90;;;;;;;16.95;23.53;102107.38;5033600;28;20037;-64
2022/03/23 10:43:15;;;;;;;7.88;7.50;;;;;;;16.94;24.03;102108.41;5034245;28;20025;-65
2022/03/23 10:45:41;;;;;;;8.02;7.63;;;;;;;16.95;24.57;102100.19;5050684;28;20032;-65
2022/03/23 10:48:09;;;;;;;8.73;8.32;;;;;;;17.17;23.89;102087.78;5028498;28;20025;-64
2022/03/23 10:50:35;;;;;;;7.40;7.10;;;;;;;17.30;23.86;102073.78;5012901;28;20129;-64
2022/03/23 10:53:06;;;;;;;11.88;11.23;;;;;;;17.08;24.43;102086.19;5014156;28;20112;-66
2022/03/23 10:55:36;;;;;;;9.10;8.63;;;;;;;16.90;23.92;102075.78;5033139;28;20108;-65
2022/03/23 10:58:02;;;;;;;8.52;8.13;;;;;;;16.80;24.44;102067.94;5032484;28;20099;-65
2022/03/23 11:00:36;;;;;;;7.95;7.55;;;;;;;16.90;24.26;102066.91;5028053;28;20033;-65
2022/03/23 11:03:04;;;;;;;7.20;6.90;;;;;;;17.06;24.29;102067.59;5032135;28;20051;-65
2022/03/23 11:05:32;;;;;;;7.85;7.45;;;;;;;17.02;23.97;102060.91;5041958;28;20083;-65
2022/03/23 11:08:24;;;;;;;8.55;8.15;;;;;;;16.61;24.58;102028.22;5032972;28;20080;-66
2022/03/23 11:16:28;;;;;;;7.43;7.13;;;;;;;16.96;24.02;102039.34;5034505;28;20051;-66
2022/03/23 11:19:18;;;;;;;7.63;7.32;;;;;;;17.20;23.65;102031.13;5026097;28;20772;-66
2022/03/23 11:22:03;;;;;;;7.55;7.25;;;;;;;15.54;24.91;102029.63;5022697;28;20511;-65
2022/03/23 11:24:36;;;;;;;7.20;6.90;;;;;;;15.94;24.65;102028.72;5030482;28;20082;-66
2022/03/23 11:27:06;;;;;;;7.40;7.10;;;;;;;16.25;24.28;102018.03;5038963;28;20025;-66
2022/03/23 11:29:33;;;;;;;8.10;7.70;;;;;;;16.17;24.37;102015.41;5040962;28;20095;-65
2022/03/23 11:32:06;;;;;;;7.90;7.50;;;;;;;16.96;23.79;102009.88;5030718;28;20037;-65
2022/03/23 11:34:35;;;;;;;7.88;7.47;;;;;;;16.53;23.88;102002.31;5032257;28;20541;-66
2022/03/23 11:37:02;;;;;;;7.63;7.32;;;;;;;17.12;23.29;102001.69;5046591;28;20024;-66
2022/03/23 11:39:28;;;;;;;7.40;7.10;;;;;;;16.82;23.39;101996.25;5047597;28;20029;-67
2022/03/23 11:41:54;;;;;;;7.60;7.30;;;;;;;16.55;23.85;101992.22;5027389;28;20029;-65
2022/03/23 11:44:24;;;;;;;7.93;7.53;;;;;;;16.00;24.21;102000.41;5042911;28;20534;-68
2022/03/23 11:46:52;;;;;;;7.00;6.70;;;;;;;16.93;23.56;101989.63;5047083;28;20042;-66
2022/03/23 11:49:26;;;;;;;7.70;7.40;;;;;;;17.35;23.31;101981.00;5042893;28;20025;-64
2022/03/23 11:52:16;;;;;;;8.70;8.30;;;;;;;17.54;23.19;101979.63;5049332;28;20597;-63